Time;durP1;ratioP1;P1;durP2;ratioP2;P2;SDS_P1;SDS_P2;PMS_P1;PMS_P2;Temp;Humidity;BMP_temperature;BMP_pressure;BME280_temperature;BME280_humidity;BME280_pressure;Samples;Min_cycle;Max_cycle;Signal;HPM_P1;HPM_P2
2024/01/15 00:00:10;;;;;;;;;;;;;;;-3.74;83.23;94722.19;5075454;28;982;-61
2024/01/15 00:02:44;;;;;;;;;;;;;;;-3.58;82.30;94722.16;5075323;28;925;-60
2024/01/15 00:05:18;;;;;;;;;;;;;;;-3.75;81.34;94717.03;5074996;28;1978;-60
2024/01/15 00:07:53;;;;;;;;;;;;;;;-3.94;81.23;94725.03;5074988;28;1007;-60
2024/01/15 00:10:27;;;;;;;;;;;;;;;-4.14;82.86;94710.44;5075258;28;937;-60
2024/01/15 00:13:01;;;;;;;;;;;;;;;-4.14;83.66;94719.13;5074924;28;1451;-61
2024/01/15 00:15:35;;;;;;;;;;;;;;;-3.97;83.54;94706.91;5074949;28;981;-59
2024/01/15 00:18:09;;;;;;;;;;;;;;;-3.74;82.61;94721.31;5075043;28;929;-60
2024/01/15 00:20:44;;;;;;;;;;;;;;;-3.73;82.18;94729.06;5074768;28;960;-60
2024/01/15 00:23:18;;;;;;;;;;;;;;;-3.96;81.66;94724.28;5074702;28;1764;-61
2024/01/15 00:25:52;;;;;;;;;;;;;;;-4.09;82.13;94716.28;5074897;28;2003;-60
2024/01/15 00:28:26;;;;;;;;;;;;;;;-4.04;82.43;94714.28;5074545;28;995;-60
2024/01/15 00:31:01;;;;;;;;;;;;;;;-4.36;82.51;94706.41;5074402;28;973;-60
2024/01/15 00:33:35;;;;;;;;;;;;;;;-4.44;83.80;94715.56;5074643;28;997;-60
2024/01/15 00:36:09;;;;;;;;;;;;;;;-4.21;82.95;94715.19;5074510;28;1008;-60
2024/01/15 00:38:44;;;;;;;;;;;;;;;-4.23;82.62;94708.34;5074473;28;942;-60
2024/01/15 00:41:18;;;;;;;;;;;;;;;-4.10;82.54;94709.34;5074270;28;1174;-60
2024/01/15 00:43:53;;;;;;;;;;;;;;;-4.25;81.53;94702.34;5074247;28;966;-60
2024/01/15 00:46:27;;;;;;;;;;;;;;;-4.49;83.60;94712.38;5074266;28;1977;-60
2024/01/15 00:49:01;;;;;;;;;;;;;;;-4.57;83.14;94708.41;5074288;28;918;-61
2024/01/15 00:51:36;;;;;;;;;;;;;;;-4.42;82.97;94713.69;5073811;28;1238;-60
2024/01/15 00:54:07;;;;;;;;;;;;;;;-4.39;82.78;94709.16;5093803;28;1432;-61
2024/01/15 00:56:42;;;;;;;;;;;;;;;-4.37;83.26;94714.31;5094337;28;976;-60
2024/01/15 00:59:16;;;;;;;;;;;;;;;-4.48;81.63;94714.88;5094296;28;975;-61
2024/01/15 01:01:51;;;;;;;;;;;;;;;-4.56;82.06;94723.09;5094277;28;1047;-61
2024/01/15 01:04:25;;;;;;;;;;;;;;;-4.70;82.27;94704.75;5094085;28;896;-60
2024/01/15 01:06:59;;;;;;;;;;;;;;;-4.59;83.10;94705.03;5094355;28;932;-60
2024/01/15 01:09:34;;;;;;;;;;;;;;;-4.45;83.00;94706.06;5093949;28;1023;-60
2024/01/15 01:12:08;;;;;;;;;;;;;;;-4.69;81.36;94698.59;5094271;28;937;-60
2024/01/15 01:14:42;;;;;;;;;;;;;;;-4.78;81.90;94699.94;5094187;28;1020;-61
2024/01/15 01:17:17;;;;;;;;;;;;;;;-4.76;83.81;94697.22;5093797;28;1876;-60
2024/01/15 01:19:50;;;;;;;;;;;;;;;-4.80;83.16;94696.56;5094181;28;1016;-60
2024/01/15 01:22:24;;;;;;;;;;;;;;;-4.82;82.62;94700.16;5093871;28;1000;-60
2024/01/15 01:24:59;;;;;;;;;;;;;;;-4.99;82.89;94699.28;5094000;28;1906;-59
2024/01/15 01:27:33;;;;;;;;;;;;;;;-4.75;83.22;94697.13;5094019;28;892;-60
2024/01/15 01:30:08;;;;;;;;;;;;;;;-4.62;82.68;94681.69;5093975;28;902;-60
2024/01/15 01:32:42;;;;;;;;;;;;;;;-4.80;82.36;94682.66;5093724;28;949;-59
2024/01/15 01:35:16;;;;;;;;;;;;;;;-4.74;82.70;94656.28;5093669;28;918;-59
2024/01/15 01:37:51;;;;;;;;;;;;;;;-5.02;84.25;94651.66;5094009;28;992;-60
2024/01/15 01:40:25;;;;;;;;;;;;;;;-4.88;85.33;94669.19;5093761;28;933;-59
2024/01/15 01:42:58;;;;;;;;;;;;;;;-4.74;85.08;94685.81;5093002;28;1488;-60
2024/01/15 01:45:33;;;;;;;;;;;;;;;-4.67;84.41;94677.66;5093624;28;1911;-60
2024/01/15 01:48:07;;;;;;;;;;;;;;;-4.92;82.73;94663.28;5093351;28;869;-60
2024/01/15 01:50:40;;;;;;;;;;;;;;;-4.84;83.02;94666.31;5093238;28;2060;-60
2024/01/15 01:53:15;;;;;;;;;;;;;;;-4.53;83.71;94662.94;5080953;28;1185;-60
2024/01/15 01:55:51;;;;;;;;;;;;;;;-4.53;83.31;94655.13;5073334;28;1001;-61
2024/01/15 01:58:25;;;;;;;;;;;;;;;-4.71;83.57;94650.88;5073063;28;1094;-61
2024/01/15 02:00:59;;;;;;;;;;;;;;;-4.73;84.01;94647.50;5073367;28;930;-60
2024/01/15 02:03:31;;;;;;;;;;;;;;;-4.63;83.83;94650.47;5073163;28;946;-60
2024/01/15 02:06:06;;;;;;;;;;;;;;;-4.59;83.83;94639.81;5073202;28;1906;-60
2024/01/15 02:08:39;;;;;;;;;;;;;;;-4.54;83.64;94634.31;5073038;28;1008;-60
2024/01/15 02:11:13;;;;;;;;;;;;;;;-4.40;83.80;94623.13;5072908;28;969;-60
2024/01/15 02:13:48;;;;;;;;;;;;;;;-4.35;84.21;94621.09;5073218;28;1007;-60
2024/01/15 02:16:22;;;;;;;;;;;;;;;-4.41;83.98;94621.44;5072851;28;1002;-60
2024/01/15 02:18:57;;;;;;;;;;;;;;;-4.37;83.65;94630.78;5073010;28;945;-59
2024/01/15 02:21:31;;;;;;;;;;;;;;;-4.58;83.07;94643.25;5073094;28;965;-60
2024/01/15 02:24:04;;;;;;;;;;;;;;;-4.52;83.71;94630.69;5073232;28;1016;-60
2024/01/15 02:26:39;;;;;;;;;;;;;;;-4.56;83.63;94610.09;5072976;28;1910;-60
2024/01/15 02:29:13;;;;;;;;;;;;;;;-4.42;83.29;94611.94;5072746;28;1059;-60
2024/01/15 02:31:47;;;;;;;;;;;;;;;-4.36;83.08;94602.00;5072863;28;989;-60
2024/01/15 02:34:20;;;;;;;;;;;;;;;-4.34;82.92;94607.97;5072657;28;905;-60
2024/01/15 02:36:54;;;;;;;;;;;;;;;-4.85;82.37;94614.28;5072972;28;933;-60
2024/01/15 02:39:29;;;;;;;;;;;;;;;-4.95;85.09;94611.28;5072939;28;958;-60
2024/01/15 02:42:03;;;;;;;;;;;;;;;-4.81;84.31;94613.19;5072646;28;1019;-59
2024/01/15 02:44:35;;;;;;;;;;;;;;;-4.61;83.55;94599.91;5072428;28;1910;-60
2024/01/15 02:47:08;;;;;;;;;;;;;;;-4.55;83.32;94598.72;5072921;28;1010;-60
2024/01/15 02:49:39;;;;;;;;;;;;;;;-4.64;83.76;94605.28;5072526;28;1054;-60
2024/01/15 02:52:12;;;;;;;;;;;;;;;-4.86;83.74;94600.38;5074993;28;1089;-60
2024/01/15 02:54:44;;;;;;;;;;;;;;;-4.88;82.59;94610.03;5094408;28;929;-59
2024/01/15 02:57:18;;;;;;;;;;;;;;;-5.19;82.41;94610.81;5096676;28;1609;-59
2024/01/15 02:59:52;;;;;;;;;;;;;;;-5.53;81.66;94608.19;5096728;28;959;-60
2024/01/15 03:02:25;;;;;;;;;;;;;;;-5.54;84.44;94608.25;5096587;28;1024;-60
2024/01/15 03:04:59;;;;;;;;;;;;;;;-5.42;84.39;94607.63;5096534;28;1984;-60
2024/01/15 03:07:33;;;;;;;;;;;;;;;-5.31;84.55;94597.50;5096826;28;985;-60
2024/01/15 03:10:05;;;;;;;;;;;;;;;-5.14;83.86;94593.16;5096661;28;929;-59
2024/01/15 03:12:40;;;;;;;;;;;;;;;-5.27;81.72;94594.72;5096509;28;943;-60
2024/01/15 03:15:13;;;;;;;;;;;;;;;-5.36;83.32;94596.91;5096351;28;1019;-59
2024/01/15 03:17:48;;;;;;;;;;;;;;;-5.35;83.04;94590.78;5096559;28;1012;-60
2024/01/15 03:20:22;;;;;;;;;;;;;;;-5.59;83.91;94597.25;5096124;28;1113;-60
2024/01/15 03:22:55;;;;;;;;;;;;;;;-5.54;84.50;94600.44;5096097;28;949;-60
2024/01/15 03:25:29;;;;;;;;;;;;;;;-5.51;84.62;94597.69;5095929;28;1918;-59
2024/01/15 03:28:03;;;;;;;;;;;;;;;-5.26;84.67;94586.84;5096394;28;1016;-59
2024/01/15 03:30:34;;;;;;;;;;;;;;;-5.11;83.77;94582.59;5096047;28;1705;-59
2024/01/15 03:33:08;;;;;;;;;;;;;;;-5.03;82.88;94572.56;5095927;28;945;-59
2024/01/15 03:35:41;;;;;;;;;;;;;;;-5.39;82.90;94567.53;5095874;28;1142;-59
2024/01/15 03:38:14;;;;;;;;;;;;;;;-5.24;83.83;94563.31;5096058;28;1023;-59
2024/01/15 03:40:49;;;;;;;;;;;;;;;-5.10;83.87;94550.41;5095801;28;949;-59
2024/01/15 03:43:21;;;;;;;;;;;;;;;-5.08;83.70;94535.50;5095851;28;1455;-59
2024/01/15 03:45:55;;;;;;;;;;;;;;;-5.31;83.71;94532.34;5095702;28;1914;-59
2024/01/15 03:48:28;;;;;;;;;;;;;;;-5.15;84.25;94542.81;5055373;28;935;-59
2024/01/15 03:51:01;;;;;;;;;;;;;;;-5.12;84.18;94537.44;5055375;28;950;-59
2024/01/15 03:53:36;;;;;;;;;;;;;;;-5.52;82.38;94523.03;5085177;28;1214;-60
2024/01/15 03:56:09;;;;;;;;;;;;;;;-5.33;83.79;94525.53;5095835;28;929;-59
2024/01/15 03:58:44;;;;;;;;;;;;;;;-5.17;83.84;94521.19;5095499;28;945;-59
2024/01/15 04:01:17;;;;;;;;;;;;;;;-5.03;83.85;94525.66;5095431;28;1000;-59
2024/01/15 04:03:48;;;;;;;;;;;;;;;-4.93;83.38;94526.03;5095602;28;1675;-60
2024/01/15 04:06:23;;;;;;;;;;;;;;;-5.30;83.04;94507.13;5094636;28;1929;-59
2024/01/15 04:08:58;;;;;;;;;;;;;;;-5.23;83.84;94520.69;5095494;28;942;-59
2024/01/15 04:11:30;;;;;;;;;;;;;;;-5.11;84.13;94509.59;5095141;28;966;-59
2024/01/15 04:14:05;;;;;;;;;;;;;;;-5.50;83.08;94516.03;5095177;28;997;-60
2024/01/15 04:16:38;;;;;;;;;;;;;;;-5.45;84.66;94528.78;5095088;28;940;-59
2024/01/15 04:19:12;;;;;;;;;;;;;;;-5.23;83.99;94542.38;5095298;28;933;-59
2024/01/15 04:21:44;;;;;;;;;;;;;;;-5.26;84.63;94546.91;5095101;28;950;-59
2024/01/15 04:24:17;;;;;;;;;;;;;;;-5.27;87.06;94553.03;5094861;28;1008;-60
2024/01/15 04:26:52;;;;;;;;;;;;;;;-5.22;88.39;94557.06;5092644;28;1969;-59
2024/01/15 04:29:26;;;;;;;;;;;;;;;-5.21;87.56;94557.94;5074820;28;1027;-59
2024/01/15 04:31:59;;;;;;;;;;;;;;;-5.36;87.51;94549.16;5074735;28;1634;-59
2024/01/15 04:34:34;;;;;;;;;;;;;;;-5.40;87.77;94552.84;5074573;28;1024;-59
2024/01/15 04:37:07;;;;;;;;;;;;;;;-5.20;85.68;94554.41;5074490;28;1015;-59
2024/01/15 04:39:40;;;;;;;;;;;;;;;-5.13;85.17;94553.97;5074329;28;1056;-59
2024/01/15 04:42:15;;;;;;;;;;;;;;;-5.17;84.43;94544.66;5074340;28;1091;-59
2024/01/15 04:44:49;;;;;;;;;;;;;;;-5.16;84.62;94546.34;5074282;28;1906;-59
2024/01/15 04:47:22;;;;;;;;;;;;;;;-5.29;85.11;94553.13;5074279;28;946;-60
2024/01/15 04:49:55;;;;;;;;;;;;;;;-5.33;85.15;94543.75;5074118;28;985;-59
2024/01/15 04:52:28;;;;;;;;;;;;;;;-5.25;84.88;94541.63;5079591;28;1298;-58
2024/01/15 04:55:03;;;;;;;;;;;;;;;-5.03;84.60;94535.25;5094396;28;941;-59
2024/01/15 04:57:34;;;;;;;;;;;;;;;-4.80;84.28;94532.25;5094289;28;1511;-59
2024/01/15 05:00:08;;;;;;;;;;;;;;;-5.02;82.60;94508.28;5094259;28;1004;-59
2024/01/15 05:02:43;;;;;;;;;;;;;;;-5.27;84.23;94485.28;5094150;28;1016;-59
2024/01/15 05:05:14;;;;;;;;;;;;;;;-5.09;84.94;94481.69;5094181;28;1917;-59
2024/01/15 05:07:49;;;;;;;;;;;;;;;-4.84;84.93;94519.44;5094284;28;920;-60
2024/01/15 05:10:22;;;;;;;;;;;;;;;-4.77;84.39;94516.41;5094069;28;1000;-60
2024/01/15 05:12:56;;;;;;;;;;;;;;;-4.93;83.94;94526.03;5094279;28;949;-59
2024/01/15 05:15:30;;;;;;;;;;;;;;;-5.43;85.50;94508.72;5093913;28;993;-59
2024/01/15 05:18:01;;;;;;;;;;;;;;;-5.45;87.01;94500.97;5094045;28;1680;-59
2024/01/15 05:20:36;;;;;;;;;;;;;;;-5.16;86.73;94511.59;5094144;28;1004;-59
2024/01/15 05:23:09;;;;;;;;;;;;;;;-4.99;85.67;94505.47;5093954;28;1016;-59
2024/01/15 05:25:40;;;;;;;;;;;;;;;-4.96;85.16;94510.53;5093612;28;1997;-59
2024/01/15 05:28:12;;;;;;;;;;;;;;;-5.45;84.07;94498.34;5093889;28;996;-59
2024/01/15 05:30:44;;;;;;;;;;;;;;;-5.34;85.29;94508.22;5093838;28;967;-59
2024/01/15 05:33:19;;;;;;;;;;;;;;;-5.17;84.45;94505.56;5093574;28;1044;-59
2024/01/15 05:35:53;;;;;;;;;;;;;;;-5.31;84.71;94501.09;5093972;28;949;-58
2024/01/15 05:38:27;;;;;;;;;;;;;;;-5.35;85.29;94503.91;5093802;28;1044;-59
2024/01/15 05:41:00;;;;;;;;;;;;;;;-5.55;87.15;94494.56;5093758;28;1466;-59
2024/01/15 05:43:34;;;;;;;;;;;;;;;-5.27;87.47;94493.09;5093477;28;992;-59
2024/01/15 05:46:08;;;;;;;;;;;;;;;-5.12;85.55;94490.50;5093657;28;1975;-59
2024/01/15 05:48:50;;;;;;;;;;;;;;;-5.12;83.48;94494.91;5093433;28;1073;-59
2024/01/15 05:51:24;;;;;;;;;;;;;;;-5.01;84.97;94489.91;5093328;28;1104;-59
2024/01/15 05:53:59;;;;;;;;;;;;;;;-5.06;85.29;94489.34;5074973;28;1153;-60
2024/01/15 05:56:33;;;;;;;;;;;;;;;-4.96;84.92;94490.50;5073309;28;907;-60
2024/01/15 05:59:07;;;;;;;;;;;;;;;-4.79;84.81;94488.75;5073098;28;960;-59
2024/01/15 06:01:42;;;;;;;;;;;;;;;-4.93;83.68;94482.53;5073282;28;934;-59
2024/01/15 06:04:16;;;;;;;;;;;;;;;-4.91;83.11;94477.22;5073558;28;922;-59
2024/01/15 06:06:50;;;;;;;;;;;;;;;-5.04;83.84;94479.66;5073030;28;1905;-59
2024/01/15 06:09:25;;;;;;;;;;;;;;;-5.13;84.31;94483.59;5072842;28;881;-59
2024/01/15 06:11:59;;;;;;;;;;;;;;;-5.10;84.50;94473.03;5073154;28;922;-59
2024/01/15 06:14:33;;;;;;;;;;;;;;;-5.02;83.31;94476.97;5073122;28;1003;-59
2024/01/15 06:17:07;;;;;;;;;;;;;;;-4.85;83.90;94476.88;5072939;28;925;-59
2024/01/15 06:19:42;;;;;;;;;;;;;;;-4.62;84.02;94472.16;5072928;28;936;-59
2024/01/15 06:22:16;;;;;;;;;;;;;;;-4.56;84.10;94482.25;5073061;28;937;-59
2024/01/15 06:24:50;;;;;;;;;;;;;;;-4.80;83.79;94487.06;5072742;28;1913;-60
2024/01/15 06:27:25;;;;;;;;;;;;;;;-4.77;84.56;94479.06;5072765;28;1026;-59
2024/01/15 06:29:58;;;;;;;;;;;;;;;-4.48;84.47;94476.59;5089251;28;1522;-59
2024/01/15 06:32:33;;;;;;;;;;;;;;;-4.42;85.01;94476.22;5076741;28;949;-60
2024/01/15 06:35:06;;;;;;;;;;;;;;;-4.34;84.78;94482.69;5077025;28;1356;-59
2024/01/15 06:37:40;;;;;;;;;;;;;;;-4.18;85.14;94490.47;5076810;28;998;-59
2024/01/15 06:40:12;;;;;;;;;;;;;;;-4.09;84.59;94476.06;5076899;28;1605;-59
2024/01/15 06:42:42;;;;;;;;;;;;;;;-3.97;84.70;94488.38;5076862;28;1424;-58
2024/01/15 06:45:14;;;;;;;;;;;;;;;-3.87;84.74;94493.94;5076684;28;1925;-59
2024/01/15 06:47:45;;;;;;;;;;;;;;;-3.75;84.24;94480.13;5076722;28;1482;-59
2024/01/15 06:50:16;;;;;;;;;;;;;;;-3.73;85.40;94483.50;5076585;28;1456;-59
2024/01/15 06:52:48;;;;;;;;;;;;;;;-3.58;84.35;94486.97;5084722;28;1599;-59
2024/01/15 06:55:23;;;;;;;;;;;;;;;-3.62;84.67;94469.78;5096577;28;1823;-60
2024/01/15 06:57:56;;;;;;;;;;;;;;;-3.49;84.85;94485.56;5097128;28;1452;-59
2024/01/15 07:00:29;;;;;;;;;;;;;;;-3.26;84.13;94484.16;5096842;28;1567;-59
2024/01/15 07:02:59;;;;;;;;;;;;;;;-3.33;85.39;94481.06;5096940;28;1473;-59
2024/01/15 07:05:31;;;;;;;;;;;;;;;-3.16;84.69;94482.66;5096491;28;1992;-59
2024/01/15 07:08:05;;;;;;;;;;;;;;;-3.35;86.49;94477.72;5096783;28;1436;-59
2024/01/15 07:10:37;;;;;;;;;;;;;;;-3.21;86.10;94483.88;5096595;28;1523;-59
2024/01/15 07:13:09;;;;;;;;;;;;;;;-3.06;86.52;94482.91;5096628;28;1461;-59
2024/01/15 07:15:43;;;;;;;;;;;;;;;-2.90;85.14;94474.09;5096540;28;956;-60
2024/01/15 07:18:16;;;;;;;;;;;;;;;-2.84;84.40;94476.38;5096458;28;1645;-60
2024/01/15 07:20:50;;;;;;;;;;;;;;;-2.78;84.99;94481.19;5096681;28;937;-59
2024/01/15 07:23:23;;;;;;;;;;;;;;;-2.79;84.60;94469.03;5096414;28;1637;-61
2024/01/15 07:25:54;;;;;;;;;;;;;;;-3.24;85.21;94476.25;5095837;28;2248;-60
2024/01/15 07:28:28;;;;;;;;;;;;;;;-3.16;85.80;94482.66;5096371;28;937;-60
2024/01/15 07:31:01;;;;;;;;;;;;;;;-3.08;84.64;94473.50;5096204;28;1434;-60
2024/01/15 07:33:27;;;;;;;;;;;;;;;-3.26;86.60;94471.09;5096281;28;962;-60
2024/01/15 07:35:53;;;;;;;;;;;;;;;-3.27;86.50;94479.03;5096227;28;953;-60
2024/01/15 07:38:19;;;;;;;;;;;;;;;-3.21;86.55;94483.88;5096035;28;989;-60
2024/01/15 07:40:49;;;;;;;;;;;;;;;-3.10;86.26;94483.22;5095240;28;977;-58
2024/01/15 07:43:15;;;;;;;;;;;;;;;-3.02;86.46;94479.16;5095996;28;928;-59
2024/01/15 07:45:41;;;;;;;;;;;;;;;-2.79;85.29;94490.84;5095795;28;1989;-59
2024/01/15 07:48:07;;;;;;;;;;;;;;;-2.88;85.60;94491.41;5095730;28;1030;-58
2024/01/15 07:50:33;;;;;;;;;;;;;;;-2.98;85.42;94491.16;5094803;28;968;-60
2024/01/15 07:52:59;;;;;;;;;;;;;;;-3.10;85.17;94494.50;5085186;28;1201;-61
2024/01/15 07:55:25;;;;;;;;;;;;;;;-2.98;84.88;94499.00;5075388;28;973;-61
2024/01/15 07:57:52;;;;;;;;;;;;;;;-2.90;84.76;94501.13;5075259;28;961;-60
2024/01/15 08:00:19;;;;;;;;;;;;;;;-2.74;85.53;94493.16;5074135;28;1044;-61
2024/01/15 08:02:44;;;;;;;;;;;;;;;-2.58;85.43;94495.63;5075375;28;1018;-60
2024/01/15 08:05:10;;;;;;;;;;;;;;;-2.36;85.25;94487.22;5075193;28;1984;-60
2024/01/15 08:07:36;;;;;;;;;;;;;;;-2.30;84.42;94475.53;5074950;28;989;-60
2024/01/15 08:10:03;;;;;;;;;;;;;;;-2.36;84.63;94461.88;5074912;28;1052;-61
2024/01/15 08:12:29;;;;;;;;;;;;;;;-2.50;85.91;94461.09;5074821;28;1029;-61
2024/01/15 08:14:55;;;;;;;;;;;;;;;-2.46;86.87;94467.84;5075179;28;1052;-61
2024/01/15 08:17:21;;;;;;;;;;;;;;;-2.43;88.38;94465.88;5075005;28;965;-60
2024/01/15 08:19:47;;;;;;;;;;;;;;;-2.30;87.23;94470.28;5075090;28;980;-61
2024/01/15 08:22:12;;;;;;;;;;;;;;;-1.98;85.66;94469.00;5074943;28;973;-61
2024/01/15 08:24:38;;;;;;;;;;;;;;;-1.91;84.74;94472.06;5074950;28;1053;-61
2024/01/15 08:27:04;;;;;;;;;;;;;;;-1.83;85.59;94482.03;5074812;28;2025;-61
2024/01/15 08:29:33;;;;;;;;;;;;;;;-1.67;85.58;94481.81;5074376;28;989;-61
2024/01/15 08:31:59;;;;;;;;;;;;;;;-1.59;84.58;94488.22;5074727;28;983;-61
2024/01/15 08:34:25;;;;;;;;;;;;;;;-1.54;85.06;94482.66;5073462;28;1069;-60
2024/01/15 08:36:51;;;;;;;;;;;;;;;-1.64;85.02;94485.06;5074558;28;1032;-61
2024/01/15 08:39:19;;;;;;;;;;;;;;;-1.63;86.16;94488.53;5074497;28;969;-60
2024/01/15 08:41:46;;;;;;;;;;;;;;;-1.72;86.06;94484.75;5074948;28;1068;-61
2024/01/15 08:44:12;;;;;;;;;;;;;;;-1.58;85.49;94489.06;5074186;28;974;-61
2024/01/15 08:46:38;;;;;;;;;;;;;;;-1.49;85.42;94492.84;5074754;28;1910;-60
2024/01/15 08:49:04;;;;;;;;;;;;;;;-1.41;84.96;94482.66;5074407;28;986;-61
2024/01/15 08:51:30;;;;;;;;;;;;;;;-1.33;84.11;94484.75;5074057;28;1081;-61
2024/01/15 08:53:56;;;;;;;;;;;;;;;-1.25;83.49;94467.56;5091927;28;1153;-61
2024/01/15 08:56:22;;;;;;;;;;;;;;;-1.35;83.96;94469.13;5094331;28;1102;-61
2024/01/15 08:58:48;;;;;;;;;;;;;;;-1.55;84.57;94457.41;5094198;28;981;-60
2024/01/15 09:01:14;;;;;;;;;;;;;;;-1.39;84.92;94468.50;5094298;28;1049;-61
2024/01/15 09:03:42;;;;;;;;;;;;;;;-1.17;83.68;94464.41;5094407;28;1016;-60
2024/01/15 09:06:09;;;;;;;;;;;;;;;-1.12;84.52;94459.69;5094208;28;1905;-61
2024/01/15 09:08:36;;;;;;;;;;;;;;;-1.11;84.05;94450.03;5094026;28;1043;-61
2024/01/15 09:11:02;;;;;;;;;;;;;;;-0.92;84.61;94452.19;5094352;28;1037;-61
2024/01/15 09:13:28;;;;;;;;;;;;;;;-0.85;84.66;94443.78;5093764;28;1193;-61
2024/01/15 09:15:54;;;;;;;;;;;;;;;-0.82;83.18;94445.31;5094189;28;1006;-61
2024/01/15 09:18:20;;;;;;;;;;;;;;;-0.80;84.39;94446.06;5093818;28;1040;-61
2024/01/15 09:20:46;;;;;;;;;;;;;;;-0.87;84.96;94443.03;5093852;28;1051;-61
2024/01/15 09:23:12;;;;;;;;;;;;;;;-0.84;84.40;94432.31;5093765;28;1019;-61
2024/01/15 09:25:38;;;;;;;;;;;;;;;-0.46;83.44;94420.81;5093835;28;1992;-61
2024/01/15 09:28:04;;;;;;;;;;;;;;;-0.18;82.86;94415.34;5093679;28;987;-61
2024/01/15 09:30:30;;;;;;;;;;;;;;;-0.44;82.21;94416.31;5093894;28;963;-61
2024/01/15 09:32:57;;;;;;;;;;;;;;;-0.30;82.70;94415.28;5093832;28;1060;-61
2024/01/15 09:35:23;;;;;;;;;;;;;;;-0.29;83.02;94395.09;5093563;28;1067;-61
2024/01/15 09:37:49;;;;;;;;;;;;;;;0.39;82.51;94398.72;5093643;28;968;-61
2024/01/15 09:40:15;;;;;;;;;;;;;;;0.60;80.92;94390.97;5093532;28;1009;-61
2024/01/15 09:42:42;;;;;;;;;;;;;;;0.71;80.35;94384.88;5093537;28;1075;-61
2024/01/15 09:45:09;;;;;;;;;;;;;;;0.76;79.31;94388.81;5093694;28;1992;-61
2024/01/15 09:47:36;;;;;;;;;;;;;;;0.65;79.85;94380.94;5093589;28;1053;-61
2024/01/15 09:50:03;;;;;;;;;;;;;;;0.66;80.76;94379.13;5093516;28;975;-60
2024/01/15 09:52:30;;;;;;;;;;;;;;;0.68;80.16;94361.44;5087426;28;1137;-61
2024/01/15 09:54:58;;;;;;;;;;;;;;;1.04;79.52;94352.41;5073436;28;1037;-60
2024/01/15 09:57:24;;;;;;;;;;;;;;;1.17;78.93;94339.09;5073229;28;1076;-61
2024/01/15 09:59:51;;;;;;;;;;;;;;;1.16;77.70;94340.06;5073069;28;1056;-60
2024/01/15 10:02:18;;;;;;;;;;;;;;;1.04;78.17;94336.59;5072961;28;1035;-61
2024/01/15 10:04:44;;;;;;;;;;;;;;;0.89;79.12;94325.53;5072633;28;987;-61
2024/01/15 10:07:13;;;;;;;;;;;;;;;0.87;80.35;94314.25;5073033;28;1910;-60
2024/01/15 10:09:39;;;;;;;;;;;;;;;1.11;79.53;94308.00;5073036;28;1137;-60
2024/01/15 10:12:05;;;;;;;;;;;;;;;1.22;80.30;94310.59;5072856;28;1104;-59
2024/01/15 10:14:32;;;;;;;;;;;;;;;1.27;79.62;94302.31;5072806;28;1036;-60
2024/01/15 10:16:58;;;;;;;;;;;;;;;1.38;79.47;94299.63;5071928;28;979;-60
2024/01/15 10:19:24;;;;;;;;;;;;;;;1.41;80.31;94294.13;5073056;28;970;-59
2024/01/15 10:21:50;;;;;;;;;;;;;;;1.66;79.50;94302.63;5071654;28;1058;-59
2024/01/15 10:24:16;;;;;;;;;;;;;;;1.66;79.63;94290.28;5072820;28;1056;-59
2024/01/15 10:26:42;;;;;;;;;;;;;;;1.73;79.66;94285.34;5072674;28;1910;-59
2024/01/15 10:29:10;;;;;;;;;;;;;;;1.61;80.33;94281.91;5073079;28;977;-60
2024/01/15 10:31:37;;;;;;;;;;;;;;;2.00;78.63;94282.16;5072751;28;1240;-59
2024/01/15 10:34:10;;;;;;;;;;;;;;;1.88;78.98;94275.31;5073151;28;982;-59
2024/01/15 10:36:39;;;;;;;;;;;;;;;2.22;77.59;94267.13;5073117;28;1057;-59
2024/01/15 10:39:06;;;;;;;;;;;;;;;2.45;76.84;94273.91;5072729;28;1057;-59
2024/01/15 10:41:32;;;;;;;;;;;;;;;2.29;77.12;94266.47;5071707;28;986;-59
2024/01/15 10:43:58;;;;;;;;;;;;;;;2.07;77.63;94259.59;5072888;28;1057;-59
2024/01/15 10:46:24;;;;;;;;;;;;;;;2.06;77.91;94257.09;5072530;28;1914;-59
2024/01/15 10:48:51;;;;;;;;;;;;;;;1.96;77.77;94254.41;5072975;28;1061;-59
2024/01/15 10:51:17;;;;;;;;;;;;;;;1.99;78.63;94256.75;5072468;28;1105;-59
2024/01/15 10:53:45;;;;;;;;;;;;;;;2.12;77.85;94244.19;5088577;28;1258;-59
2024/01/15 10:56:12;;;;;;;;;;;;;;;2.17;77.52;94242.97;5093033;28;961;-59
2024/01/15 10:58:39;;;;;;;;;;;;;;;2.38;76.63;94229.72;5093018;28;1062;-59
2024/01/15 11:01:06;;;;;;;;;;;;;;;2.39;76.15;94226.09;5093060;28;965;-59
2024/01/15 11:03:32;;;;;;;;;;;;;;;2.45;76.04;94225.59;5092632;28;1012;-59
2024/01/15 11:05:59;;;;;;;;;;;;;;;2.49;75.58;94221.72;5092978;28;1989;-59
2024/01/15 11:08:25;;;;;;;;;;;;;;;2.48;74.98;94205.03;5092675;28;950;-59
2024/01/15 11:10:52;;;;;;;;;;;;;;;2.40;75.17;94207.50;5092945;28;970;-59
2024/01/15 11:13:30;;;;;;;;;;;;;;;2.43;74.69;94201.97;5092742;28;969;-59
2024/01/15 11:16:03;;;;;;;;;;;;;;;2.41;74.58;94184.59;5094612;28;965;-58
2024/01/15 11:18:31;;;;;;;;;;;;;;;2.72;74.42;94188.00;5096341;28;910;-58
2024/01/15 11:21:18;;;;;;;;;;;;;;;3.30;72.65;94173.94;5096328;28;1041;-58
2024/01/15 11:23:46;;;;;;;;;;;;;;;4.14;70.16;94167.06;5096460;28;1067;-58
2024/01/15 11:26:30;;;;;;;;;;;;;;;4.39;68.22;94169.03;5096173;28;1933;-58
2024/01/15 11:28:58;;;;;;;;;;;;;;;4.07;68.57;94164.16;5096167;28;965;-58
2024/01/15 11:31:28;;;;;;;;;;;;;;;3.83;69.70;94164.66;5095991;28;1035;-59
2024/01/15 11:33:55;;;;;;;;;;;;;;;3.82;68.87;94163.84;5096436;28;992;-59
2024/01/15 11:36:39;;;;;;;;;;;;;;;3.77;69.38;94147.56;5096299;28;1068;-59
2024/01/15 11:39:24;;;;;;;;;;;;;;;3.94;68.31;94150.44;5095920;28;1088;-59
2024/01/15 11:41:50;;;;;;;;;;;;;;;4.02;65.95;94143.44;5095863;28;1047;-59
2024/01/15 11:44:16;;;;;;;;;;;;;;;4.38;65.21;94140.06;5096045;28;988;-59
2024/01/15 11:46:49;;;;;;;;;;;;;;;4.30;62.13;94135.50;5095731;28;1984;-59
2024/01/15 11:49:20;;;;;;;;;;;;;;;4.09;63.25;94133.09;5096049;28;966;-59
2024/01/15 11:51:47;;;;;;;;;;;;;;;3.91;63.68;94130.41;5095777;28;1346;-59
2024/01/15 11:54:14;;;;;;;;;;;;;;;3.89;63.14;94124.44;5075439;28;1157;-59
2024/01/15 11:56:41;;;;;;;;;;;;;;;3.98;62.72;94115.59;5075662;28;1010;-59
2024/01/15 11:59:07;;;;;;;;;;;;;;;4.15;60.59;94113.16;5075349;28;1244;-59
2024/01/15 12:01:33;;;;;;;;;;;;;;;4.05;60.97;94111.41;5075179;28;1048;-59
2024/01/15 12:04:00;;;;;;;;;;;;;;;3.96;62.69;94104.34;5075360;28;970;-59
2024/01/15 12:06:25;;;;;;;;;;;;;;;3.90;62.04;94111.03;5075037;28;1906;-59
2024/01/15 12:09:05;;;;;;;;;;;;;;;4.00;63.31;94097.78;5073948;28;1089;-59
2024/01/15 12:11:32;;;;;;;;;;;;;;;3.91;62.50;94096.03;5075320;28;1034;-59
2024/01/15 12:13:59;;;;;;;;;;;;;;;3.95;63.03;94086.00;5075040;28;1092;-59
2024/01/15 12:16:25;;;;;;;;;;;;;;;3.98;63.85;94077.75;5075069;28;1015;-58
2024/01/15 12:18:51;;;;;;;;;;;;;;;4.00;62.90;94073.16;5075049;28;1068;-58
2024/01/15 12:21:18;;;;;;;;;;;;;;;4.09;64.15;94082.84;5074867;28;1191;-59
2024/01/15 12:23:46;;;;;;;;;;;;;;;4.23;64.14;94077.06;5074808;28;1028;-58
2024/01/15 12:26:12;;;;;;;;;;;;;;;4.31;64.02;94071.03;5074566;28;1906;-58
2024/01/15 12:28:39;;;;;;;;;;;;;;;4.29;65.40;94060.59;5074065;28;1032;-59
2024/01/15 12:31:05;;;;;;;;;;;;;;;4.43;64.42;94064.53;5074727;28;1049;-59
2024/01/15 12:33:32;;;;;;;;;;;;;;;4.40;64.56;94064.84;5074502;28;1095;-59
2024/01/15 12:35:58;;;;;;;;;;;;;;;4.40;64.85;94054.25;5074645;28;1044;-58
2024/01/15 12:38:25;;;;;;;;;;;;;;;4.47;64.63;94065.06;5074337;28;1080;-58
2024/01/15 12:40:51;;;;;;;;;;;;;;;4.48;64.50;94043.72;5074491;28;1049;-58
2024/01/15 12:43:17;;;;;;;;;;;;;;;4.45;64.57;94051.97;5074645;28;993;-59
2024/01/15 12:45:43;;;;;;;;;;;;;;;4.36;66.68;94034.34;5074347;28;1910;-58
2024/01/15 12:48:09;;;;;;;;;;;;;;;4.23;64.95;94037.38;5074414;28;1049;-59
2024/01/15 12:50:35;;;;;;;;;;;;;;;4.19;66.19;94032.53;5074276;28;966;-59
2024/01/15 12:53:02;;;;;;;;;;;;;;;4.19;67.05;94035.16;5084255;28;1145;-59
2024/01/15 12:55:28;;;;;;;;;;;;;;;4.15;67.55;94049.69;5094683;28;974;-59
2024/01/15 12:57:54;;;;;;;;;;;;;;;4.11;67.77;94039.38;5094633;28;1052;-59
2024/01/15 13:00:20;;;;;;;;;;;;;;;4.14;67.08;94040.91;5094266;28;1044;-59
2024/01/15 13:02:46;;;;;;;;;;;;;;;4.14;67.63;94035.63;5094255;28;1060;-59
2024/01/15 13:05:12;;;;;;;;;;;;;;;4.15;66.60;94031.16;5094120;28;1906;-59
2024/01/15 13:07:38;;;;;;;;;;;;;;;4.14;67.50;94021.56;5094243;28;1063;-59
2024/01/15 13:10:05;;;;;;;;;;;;;;;4.16;67.87;94019.59;5094213;28;1047;-59
2024/01/15 13:12:32;;;;;;;;;;;;;;;4.19;67.82;94011.34;5094226;28;962;-58
2024/01/15 13:14:58;;;;;;;;;;;;;;;4.18;67.62;94010.53;5094430;28;1048;-59
2024/01/15 13:17:24;;;;;;;;;;;;;;;4.19;67.45;94009.56;5094153;28;1048;-57
2024/01/15 13:19:50;;;;;;;;;;;;;;;4.32;68.62;94009.16;5094127;28;924;-58
2024/01/15 13:22:16;;;;;;;;;;;;;;;4.34;68.93;94004.56;5093823;28;1053;-58